sensor_id;sensor_type;location;lat;lon;timestamp;temperature;humidity
52979;DHT22;63430;53.186;6.598;2023-07-20T00:00:08;15.30;99.90
52979;DHT22;63430;53.186;6.598;2023-07-20T00:02:18;15.30;99.90
52979;DHT22;63430;53.186;6.598;2023-07-20T00:04:21;15.30;99.90
52979;DHT22;63430;53.186;6.598;2023-07-20T00:06:24;15.30;99.90
52979;DHT22;63430;53.186;6.598;2023-07-20T00:08:28;15.20;99.90
52979;DHT22;63430;53.186;6.598;2023-07-20T00:10:35;15.30;99.90
52979;DHT22;63430;53.186;6.598;2023-07-20T00:12:41;15.30;99.90
52979;DHT22;63430;53.186;6.598;2023-07-20T00:14:52;15.30;99.90
52979;DHT22;63430;53.186;6.598;2023-07-20T00:16:56;15.50;99.90
52979;DHT22;63430;53.186;6.598;2023-07-20T00:19:01;15.30;99.90
52979;DHT22;63430;53.186;6.598;2023-07-20T00:21:06;15.30;99.90
52979;DHT22;63430;53.186;6.598;2023-07-20T00:23:09;15.30;99.90
52979;DHT22;63430;53.186;6.598;2023-07-20T00:25:11;15.30;99.90
52979;DHT22;63430;53.186;6.598;2023-07-20T00:27:17;15.30;99.90
52979;DHT22;63430;53.186;6.598;2023-07-20T00:29:22;15.30;99.90
52979;DHT22;63430;53.186;6.598;2023-07-20T00:31:25;15.20;99.90
52979;DHT22;63430;53.186;6.598;2023-07-20T00:33:28;15.30;99.90
52979;DHT22;63430;53.186;6.598;2023-07-20T00:35:33;15.20;99.90
52979;DHT22;63430;53.186;6.598;2023-07-20T00:37:39;15.20;99.90
52979;DHT22;63430;53.186;6.598;2023-07-20T00:39:43;15.20;99.90
52979;DHT22;63430;53.186;6.598;2023-07-20T00:41:46;15.10;99.90
52979;DHT22;63430;53.186;6.598;2023-07-20T00:43:51;15.10;99.90
52979;DHT22;63430;53.186;6.598;2023-07-20T00:45:57;15.10;99.90
52979;DHT22;63430;53.186;6.598;2023-07-20T00:48:01;15.00;99.90
52979;DHT22;63430;53.186;6.598;2023-07-20T00:50:06;15.00;99.90
52979;DHT22;63430;53.186;6.598;2023-07-20T00:52:10;15.00;99.90
52979;DHT22;63430;53.186;6.598;2023-07-20T00:54:16;14.90;99.90
52979;DHT22;63430;53.186;6.598;2023-07-20T00:56:19;14.90;99.90
52979;DHT22;63430;53.186;6.598;2023-07-20T00:58:23;14.90;99.90
52979;DHT22;63430;53.186;6.598;2023-07-20T01:00:29;14.90;99.90
52979;DHT22;63430;53.186;6.598;2023-07-20T01:02:32;14.90;99.90
52979;DHT22;63430;53.186;6.598;2023-07-20T01:04:36;14.90;99.90
52979;DHT22;63430;53.186;6.598;2023-07-20T01:06:45;14.90;99.90
52979;DHT22;63430;53.186;6.598;2023-07-20T01:09:05;14.80;99.90
52979;DHT22;63430;53.186;6.598;2023-07-20T01:11:16;14.80;99.90
52979;DHT22;63430;53.186;6.598;2023-07-20T01:13:21;14.80;99.90
52979;DHT22;63430;53.186;6.598;2023-07-20T01:15:30;14.70;99.90
52979;DHT22;63430;53.186;6.598;2023-07-20T01:17:33;14.70;99.90
52979;DHT22;63430;53.186;6.598;2023-07-20T01:19:35;14.70;99.90
52979;DHT22;63430;53.186;6.598;2023-07-20T01:21:44;14.70;99.90
52979;DHT22;63430;53.186;6.598;2023-07-20T01:24:06;14.70;99.90
52979;DHT22;63430;53.186;6.598;2023-07-20T01:26:40;14.70;99.90
52979;DHT22;63430;53.186;6.598;2023-07-20T01:29:11;14.30;99.90
52979;DHT22;63430;53.186;6.598;2023-07-20T01:31:27;14.60;99.90
52979;DHT22;63430;53.186;6.598;2023-07-20T01:33:31;14.50;99.90
52979;DHT22;63430;53.186;6.598;2023-07-20T01:35:36;14.50;99.90
52979;DHT22;63430;53.186;6.598;2023-07-20T01:37:41;14.60;99.90
52979;DHT22;63430;53.186;6.598;2023-07-20T01:39:45;14.50;99.90
52979;DHT22;63430;53.186;6.598;2023-07-20T01:41:49;14.40;99.90
52979;DHT22;63430;53.186;6.598;2023-07-20T01:43:52;14.40;99.90
52979;DHT22;63430;53.186;6.598;2023-07-20T01:45:55;14.40;99.90
52979;DHT22;63430;53.186;6.598;2023-07-20T01:48:01;14.40;99.90
52979;DHT22;63430;53.186;6.598;2023-07-20T01:50:11;14.30;99.90
52979;DHT22;63430;53.186;6.598;2023-07-20T01:52:15;14.40;99.90
52979;DHT22;63430;53.186;6.598;2023-07-20T01:54:18;14.30;99.90
52979;DHT22;63430;53.186;6.598;2023-07-20T01:56:21;14.30;99.90
52979;DHT22;63430;53.186;6.598;2023-07-20T01:58:27;14.30;99.90
52979;DHT22;63430;53.186;6.598;2023-07-20T02:00:30;14.20;99.90
52979;DHT22;63430;53.186;6.598;2023-07-20T02:02:36;14.20;99.90
52979;DHT22;63430;53.186;6.598;2023-07-20T02:04:44;14.20;99.90
52979;DHT22;63430;53.186;6.598;2023-07-20T02:06:49;14.10;99.90
52979;DHT22;63430;53.186;6.598;2023-07-20T02:08:51;14.10;99.90
52979;DHT22;63430;53.186;6.598;2023-07-20T02:10:55;14.10;99.90
52979;DHT22;63430;53.186;6.598;2023-07-20T02:12:58;14.10;99.90
52979;DHT22;63430;53.186;6.598;2023-07-20T02:15:01;14.10;99.90
52979;DHT22;63430;53.186;6.598;2023-07-20T02:17:04;14.00;99.90
52979;DHT22;63430;53.186;6.598;2023-07-20T02:19:08;14.10;99.90
52979;DHT22;63430;53.186;6.598;2023-07-20T02:21:14;14.00;99.90
52979;DHT22;63430;53.186;6.598;2023-07-20T02:23:17;13.90;99.90
52979;DHT22;63430;53.186;6.598;2023-07-20T02:25:22;13.90;99.90
52979;DHT22;63430;53.186;6.598;2023-07-20T02:27:25;13.90;99.90
52979;DHT22;63430;53.186;6.598;2023-07-20T02:29:28;13.90;99.90
52979;DHT22;63430;53.186;6.598;2023-07-20T02:31:30;13.90;99.90
52979;DHT22;63430;53.186;6.598;2023-07-20T02:33:35;13.90;99.90
52979;DHT22;63430;53.186;6.598;2023-07-20T02:35:37;13.90;99.90
52979;DHT22;63430;53.186;6.598;2023-07-20T02:37:42;13.90;99.90
52979;DHT22;63430;53.186;6.598;2023-07-20T02:39:45;13.80;99.90
52979;DHT22;63430;53.186;6.598;2023-07-20T02:41:48;13.80;99.90
52979;DHT22;63430;53.186;6.598;2023-07-20T02:43:55;13.80;99.90
52979;DHT22;63430;53.186;6.598;2023-07-20T02:45:59;13.80;99.90
52979;DHT22;63430;53.186;6.598;2023-07-20T02:48:02;13.80;99.90
52979;DHT22;63430;53.186;6.598;2023-07-20T02:50:08;13.80;99.90
52979;DHT22;63430;53.186;6.598;2023-07-20T02:52:13;13.70;99.90
52979;DHT22;63430;53.186;6.598;2023-07-20T02:54:24;13.70;99.90
52979;DHT22;63430;53.186;6.598;2023-07-20T02:56:30;13.70;99.90
52979;DHT22;63430;53.186;6.598;2023-07-20T02:58:35;13.70;99.90
52979;DHT22;63430;53.186;6.598;2023-07-20T03:00:42;13.70;99.90
52979;DHT22;63430;53.186;6.598;2023-07-20T03:02:46;13.60;99.90
52979;DHT22;63430;53.186;6.598;2023-07-20T03:04:55;13.60;99.90
52979;DHT22;63430;53.186;6.598;2023-07-20T03:07:02;13.60;99.90
52979;DHT22;63430;53.186;6.598;2023-07-20T03:09:05;13.60;99.90
52979;DHT22;63430;53.186;6.598;2023-07-20T03:11:12;13.50;99.90
52979;DHT22;63430;53.186;6.598;2023-07-20T03:13:14;13.50;99.90
52979;DHT22;63430;53.186;6.598;2023-07-20T03:15:18;13.50;99.90
52979;DHT22;63430;53.186;6.598;2023-07-20T03:17:21;13.40;99.90
52979;DHT22;63430;53.186;6.598;2023-07-20T03:19:25;13.40;99.90
52979;DHT22;63430;53.186;6.598;2023-07-20T03:21:28;13.40;99.90
52979;DHT22;63430;53.186;6.598;2023-07-20T03:23:33;13.40;99.90
52979;DHT22;63430;53.186;6.598;2023-07-20T03:25:36;13.40;99.90
52979;DHT22;63430;53.186;6.598;2023-07-20T03:27:43;13.40;99.90
52979;DHT22;63430;53.186;6.598;2023-07-20T03:29:47;13.30;99.90
52979;DHT22;63430;53.186;6.598;2023-07-20T03:31:53;13.30;99.90
52979;DHT22;63430;53.186;6.598;2023-07-20T03:33:56;13.30;99.90
52979;DHT22;63430;53.186;6.598;2023-07-20T03:36:01;13.30;99.90
52979;DHT22;63430;53.186;6.598;2023-07-20T03:38:06;13.20;99.90
52979;DHT22;63430;53.186;6.598;2023-07-20T03:40:09;13.20;99.90
52979;DHT22;63430;53.186;6.598;2023-07-20T03:42:15;13.20;99.90
52979;DHT22;63430;53.186;6.598;2023-07-20T03:44:20;13.30;99.90
52979;DHT22;63430;53.186;6.598;2023-07-20T03:46:24;13.20;99.90
52979;DHT22;63430;53.186;6.598;2023-07-20T03:48:27;13.20;99.90
52979;DHT22;63430;53.186;6.598;2023-07-20T03:50:34;13.20;99.90
52979;DHT22;63430;53.186;6.598;2023-07-20T03:52:41;13.20;99.90
52979;DHT22;63430;53.186;6.598;2023-07-20T03:54:47;13.20;99.90
52979;DHT22;63430;53.186;6.598;2023-07-20T03:56:50;13.10;99.90
52979;DHT22;63430;53.186;6.598;2023-07-20T03:58:53;13.20;99.90
52979;DHT22;63430;53.186;6.598;2023-07-20T04:01:01;13.20;99.90
52979;DHT22;63430;53.186;6.598;2023-07-20T04:03:03;13.10;99.90
52979;DHT22;63430;53.186;6.598;2023-07-20T04:05:07;13.10;99.90
52979;DHT22;63430;53.186;6.598;2023-07-20T04:07:10;13.10;99.90
52979;DHT22;63430;53.186;6.598;2023-07-20T04:09:17;13.10;99.90
52979;DHT22;63430;53.186;6.598;2023-07-20T04:11:19;13.10;99.90
52979;DHT22;63430;53.186;6.598;2023-07-20T04:13:22;13.00;99.90
52979;DHT22;63430;53.186;6.598;2023-07-20T04:15:25;13.10;99.90
52979;DHT22;63430;53.186;6.598;2023-07-20T04:17:30;13.10;99.90
52979;DHT22;63430;53.186;6.598;2023-07-20T04:19:33;13.10;99.90
52979;DHT22;63430;53.186;6.598;2023-07-20T04:21:40;13.10;99.90
52979;DHT22;63430;53.186;6.598;2023-07-20T04:23:46;13.10;99.90
52979;DHT22;63430;53.186;6.598;2023-07-20T04:25:49;13.10;99.90
52979;DHT22;63430;53.186;6.598;2023-07-20T04:27:52;13.10;99.90
52979;DHT22;63430;53.186;6.598;2023-07-20T04:29:57;13.10;99.90
52979;DHT22;63430;53.186;6.598;2023-07-20T04:32:01;13.10;99.90
52979;DHT22;63430;53.186;6.598;2023-07-20T04:34:07;13.10;99.90
52979;DHT22;63430;53.186;6.598;2023-07-20T04:36:13;13.10;99.90
52979;DHT22;63430;53.186;6.598;2023-07-20T04:38:19;13.10;99.90
52979;DHT22;63430;53.186;6.598;2023-07-20T04:40:31;13.10;99.90
52979;DHT22;63430;53.186;6.598;2023-07-20T04:42:34;13.10;99.90
52979;DHT22;63430;53.186;6.598;2023-07-20T04:44:36;13.10;99.90
52979;DHT22;63430;53.186;6.598;2023-07-20T04:46:40;13.10;99.90
52979;DHT22;63430;53.186;6.598;2023-07-20T04:48:48;13.10;99.90
52979;DHT22;63430;53.186;6.598;2023-07-20T04:50:57;13.10;99.90
52979;DHT22;63430;53.186;6.598;2023-07-20T04:53:08;13.20;99.90
52979;DHT22;63430;53.186;6.598;2023-07-20T04:55:16;13.20;99.90
52979;DHT22;63430;53.186;6.598;2023-07-20T04:57:18;13.20;99.90
52979;DHT22;63430;53.186;6.598;2023-07-20T04:59:23;13.30;99.90
52979;DHT22;63430;53.186;6.598;2023-07-20T05:01:27;13.30;99.90
52979;DHT22;63430;53.186;6.598;2023-07-20T05:03:33;13.30;99.90
52979;DHT22;63430;53.186;6.598;2023-07-20T05:05:38;13.40;99.90
52979;DHT22;63430;53.186;6.598;2023-07-20T05:07:48;13.40;99.90
52979;DHT22;63430;53.186;6.598;2023-07-20T05:09:53;13.50;99.90
52979;DHT22;63430;53.186;6.598;2023-07-20T05:11:56;13.60;99.90
52979;DHT22;63430;53.186;6.598;2023-07-20T05:14:00;13.60;99.90
52979;DHT22;63430;53.186;6.598;2023-07-20T05:16:05;13.60;99.90
52979;DHT22;63430;53.186;6.598;2023-07-20T05:18:09;13.70;99.90
52979;DHT22;63430;53.186;6.598;2023-07-20T05:20:12;13.70;99.90
52979;DHT22;63430;53.186;6.598;2023-07-20T05:22:17;13.80;99.90
52979;DHT22;63430;53.186;6.598;2023-07-20T05:24:24;13.80;99.90
52979;DHT22;63430;53.186;6.598;2023-07-20T05:28:41;13.90;99.90
52979;DHT22;63430;53.186;6.598;2023-07-20T05:30:45;14.00;99.90
52979;DHT22;63430;53.186;6.598;2023-07-20T05:32:52;14.10;99.90
52979;DHT22;63430;53.186;6.598;2023-07-20T05:35:00;14.20;99.90
52979;DHT22;63430;53.186;6.598;2023-07-20T05:37:03;14.30;99.90
52979;DHT22;63430;53.186;6.598;2023-07-20T05:39:06;14.40;99.90
52979;DHT22;63430;53.186;6.598;2023-07-20T05:41:11;14.50;99.90
52979;DHT22;63430;53.186;6.598;2023-07-20T05:43:14;14.60;99.90
52979;DHT22;63430;53.186;6.598;2023-07-20T05:45:17;14.60;99.90
52979;DHT22;63430;53.186;6.598;2023-07-20T05:47:23;14.80;99.90
52979;DHT22;63430;53.186;6.598;2023-07-20T05:49:29;14.80;99.90
52979;DHT22;63430;53.186;6.598;2023-07-20T05:51:35;15.00;99.90
52979;DHT22;63430;53.186;6.598;2023-07-20T05:53:41;15.10;99.90
52979;DHT22;63430;53.186;6.598;2023-07-20T05:55:51;15.20;99.90
52979;DHT22;63430;53.186;6.598;2023-07-20T05:57:57;15.30;99.90
52979;DHT22;63430;53.186;6.598;2023-07-20T06:00:04;15.50;99.90
52979;DHT22;63430;53.186;6.598;2023-07-20T06:02:13;15.60;99.90
52979;DHT22;63430;53.186;6.598;2023-07-20T06:04:18;15.70;99.90
52979;DHT22;63430;53.186;6.598;2023-07-20T06:06:20;15.90;99.90
52979;DHT22;63430;53.186;6.598;2023-07-20T06:08:27;16.00;99.90
52979;DHT22;63430;53.186;6.598;2023-07-20T06:10:29;16.10;99.90
52979;DHT22;63430;53.186;6.598;2023-07-20T06:12:32;16.20;99.90
52979;DHT22;63430;53.186;6.598;2023-07-20T06:14:39;16.30;99.90
52979;DHT22;63430;53.186;6.598;2023-07-20T06:16:46;16.40;99.90
52979;DHT22;63430;53.186;6.598;2023-07-20T06:18:51;16.50;99.90
52979;DHT22;63430;53.186;6.598;2023-07-20T06:20:56;16.70;99.90
52979;DHT22;63430;53.186;6.598;2023-07-20T06:23:01;16.80;99.90
52979;DHT22;63430;53.186;6.598;2023-07-20T06:25:08;16.90;99.90
52979;DHT22;63430;53.186;6.598;2023-07-20T06:27:14;17.00;99.90
52979;DHT22;63430;53.186;6.598;2023-07-20T06:29:25;17.10;99.90
52979;DHT22;63430;53.186;6.598;2023-07-20T06:31:32;17.20;99.90
52979;DHT22;63430;53.186;6.598;2023-07-20T06:33:37;17.30;99.90
52979;DHT22;63430;53.186;6.598;2023-07-20T06:35:42;17.40;99.90
52979;DHT22;63430;53.186;6.598;2023-07-20T06:37:47;17.50;99.90
52979;DHT22;63430;53.186;6.598;2023-07-20T06:39:55;17.70;99.90
52979;DHT22;63430;53.186;6.598;2023-07-20T06:42:00;17.70;99.90
52979;DHT22;63430;53.186;6.598;2023-07-20T06:44:04;17.70;99.90
52979;DHT22;63430;53.186;6.598;2023-07-20T06:46:07;17.70;99.90
52979;DHT22;63430;53.186;6.598;2023-07-20T06:48:13;17.80;99.90
52979;DHT22;63430;53.186;6.598;2023-07-20T06:50:23;17.80;99.90
52979;DHT22;63430;53.186;6.598;2023-07-20T06:52:29;17.70;99.90
52979;DHT22;63430;53.186;6.598;2023-07-20T06:54:33;17.70;99.90
52979;DHT22;63430;53.186;6.598;2023-07-20T06:56:38;17.70;99.90
52979;DHT22;63430;53.186;6.598;2023-07-20T06:58:49;17.60;99.90
52979;DHT22;63430;53.186;6.598;2023-07-20T07:00:51;17.40;99.90
52979;DHT22;63430;53.186;6.598;2023-07-20T07:02:54;17.30;99.90
52979;DHT22;63430;53.186;6.598;2023-07-20T07:05:06;17.30;99.90
52979;DHT22;63430;53.186;6.598;2023-07-20T07:07:12;17.30;99.90
52979;DHT22;63430;53.186;6.598;2023-07-20T07:09:14;17.50;99.90
52979;DHT22;63430;53.186;6.598;2023-07-20T07:11:17;17.70;99.90
52979;DHT22;63430;53.186;6.598;2023-07-20T07:13:20;17.80;99.90
52979;DHT22;63430;53.186;6.598;2023-07-20T07:15:23;17.80;99.90
52979;DHT22;63430;53.186;6.598;2023-07-20T07:17:26;17.90;99.90
52979;DHT22;63430;53.186;6.598;2023-07-20T07:19:29;17.80;99.90
52979;DHT22;63430;53.186;6.598;2023-07-20T07:21:34;17.70;99.90
52979;DHT22;63430;53.186;6.598;2023-07-20T07:23:38;17.60;99.90
52979;DHT22;63430;53.186;6.598;2023-07-20T07:25:42;17.40;99.90
52979;DHT22;63430;53.186;6.598;2023-07-20T07:27:45;17.30;99.90
52979;DHT22;63430;53.186;6.598;2023-07-20T07:29:48;17.10;99.90
52979;DHT22;63430;53.186;6.598;2023-07-20T07:31:51;16.90;99.90
52979;DHT22;63430;53.186;6.598;2023-07-20T07:33:54;16.80;99.90
52979;DHT22;63430;53.186;6.598;2023-07-20T07:36:03;16.60;99.90
52979;DHT22;63430;53.186;6.598;2023-07-20T07:38:09;16.70;99.90
52979;DHT22;63430;53.186;6.598;2023-07-20T07:40:34;17.00;99.90
52979;DHT22;63430;53.186;6.598;2023-07-20T07:42:37;17.30;99.90
52979;DHT22;63430;53.186;6.598;2023-07-20T07:44:40;17.70;99.90
52979;DHT22;63430;53.186;6.598;2023-07-20T07:46:46;18.00;99.90
52979;DHT22;63430;53.186;6.598;2023-07-20T07:48:49;18.20;99.90
52979;DHT22;63430;53.186;6.598;2023-07-20T07:50:53;18.20;99.90
52979;DHT22;63430;53.186;6.598;2023-07-20T07:53:00;18.10;99.90
52979;DHT22;63430;53.186;6.598;2023-07-20T07:55:07;17.90;99.90
52979;DHT22;63430;53.186;6.598;2023-07-20T07:57:10;17.70;99.90
52979;DHT22;63430;53.186;6.598;2023-07-20T07:59:13;17.50;99.90
52979;DHT22;63430;53.186;6.598;2023-07-20T08:01:15;17.30;99.90
52979;DHT22;63430;53.186;6.598;2023-07-20T08:03:19;17.30;99.90
52979;DHT22;63430;53.186;6.598;2023-07-20T08:05:29;17.50;99.90
52979;DHT22;63430;53.186;6.598;2023-07-20T08:07:36;17.80;99.90
52979;DHT22;63430;53.186;6.598;2023-07-20T08:09:39;18.10;99.90
52979;DHT22;63430;53.186;6.598;2023-07-20T08:11:44;18.40;99.90
52979;DHT22;63430;53.186;6.598;2023-07-20T08:13:49;18.60;99.90
52979;DHT22;63430;53.186;6.598;2023-07-20T08:15:56;18.80;99.90
52979;DHT22;63430;53.186;6.598;2023-07-20T08:18:01;18.70;99.90
52979;DHT22;63430;53.186;6.598;2023-07-20T08:20:06;18.60;99.90
52979;DHT22;63430;53.186;6.598;2023-07-20T08:22:13;18.40;99.90
52979;DHT22;63430;53.186;6.598;2023-07-20T08:24:18;18.20;99.90
52979;DHT22;63430;53.186;6.598;2023-07-20T08:26:21;18.10;99.90
52979;DHT22;63430;53.186;6.598;2023-07-20T08:28:28;18.00;99.90
52979;DHT22;63430;53.186;6.598;2023-07-20T08:30:42;18.10;99.90
52979;DHT22;63430;53.186;6.598;2023-07-20T08:32:45;18.40;99.90
52979;DHT22;63430;53.186;6.598;2023-07-20T08:34:48;18.60;99.90
52979;DHT22;63430;53.186;6.598;2023-07-20T08:36:51;18.90;99.90
52979;DHT22;63430;53.186;6.598;2023-07-20T08:38:56;19.50;99.90
52979;DHT22;63430;53.186;6.598;2023-07-20T08:40:59;19.50;99.90
52979;DHT22;63430;53.186;6.598;2023-07-20T08:43:07;19.70;99.50
52979;DHT22;63430;53.186;6.598;2023-07-20T08:45:13;19.70;97.60
52979;DHT22;63430;53.186;6.598;2023-07-20T08:47:18;19.90;97.00
52979;DHT22;63430;53.186;6.598;2023-07-20T08:49:23;19.90;94.50
52979;DHT22;63430;53.186;6.598;2023-07-20T08:51:26;19.60;93.20
52979;DHT22;63430;53.186;6.598;2023-07-20T08:53:31;19.40;93.20
52979;DHT22;63430;53.186;6.598;2023-07-20T08:55:37;19.20;94.30
52979;DHT22;63430;53.186;6.598;2023-07-20T08:57:49;19.40;94.50
52979;DHT22;63430;53.186;6.598;2023-07-20T08:59:56;19.50;92.40
52979;DHT22;63430;53.186;6.598;2023-07-20T09:02:02;19.80;91.40
52979;DHT22;63430;53.186;6.598;2023-07-20T09:04:07;19.90;84.50
52979;DHT22;63430;53.186;6.598;2023-07-20T09:06:10;20.00;88.10
52979;DHT22;63430;53.186;6.598;2023-07-20T09:08:15;20.20;79.90
52979;DHT22;63430;53.186;6.598;2023-07-20T09:10:17;20.30;83.40
52979;DHT22;63430;53.186;6.598;2023-07-20T09:12:21;20.30;84.70
52979;DHT22;63430;53.186;6.598;2023-07-20T09:14:28;20.10;85.30
52979;DHT22;63430;53.186;6.598;2023-07-20T09:16:49;19.90;84.30
52979;DHT22;63430;53.186;6.598;2023-07-20T09:18:57;19.50;82.90
52979;DHT22;63430;53.186;6.598;2023-07-20T09:21:03;19.30;83.40
52979;DHT22;63430;53.186;6.598;2023-07-20T09:23:06;19.50;86.10
52979;DHT22;63430;53.186;6.598;2023-07-20T09:25:17;19.60;84.10
52979;DHT22;63430;53.186;6.598;2023-07-20T09:27:21;19.60;84.40
52979;DHT22;63430;53.186;6.598;2023-07-20T09:29:24;19.50;82.00
52979;DHT22;63430;53.186;6.598;2023-07-20T09:31:27;19.40;81.20
52979;DHT22;63430;53.186;6.598;2023-07-20T09:33:41;19.40;84.10
52979;DHT22;63430;53.186;6.598;2023-07-20T09:36:05;19.60;86.50
52979;DHT22;63430;53.186;6.598;2023-07-20T09:38:29;20.00;86.60
52979;DHT22;63430;53.186;6.598;2023-07-20T09:40:52;20.40;85.50
52979;DHT22;63430;53.186;6.598;2023-07-20T09:42:59;20.70;82.90
52979;DHT22;63430;53.186;6.598;2023-07-20T09:45:13;20.90;81.60
52979;DHT22;63430;53.186;6.598;2023-07-20T09:47:25;20.60;79.70
52979;DHT22;63430;53.186;6.598;2023-07-20T09:49:30;20.40;79.50
52979;DHT22;63430;53.186;6.598;2023-07-20T09:51:41;20.30;74.00
52979;DHT22;63430;53.186;6.598;2023-07-20T09:53:48;20.50;79.50
52979;DHT22;63430;53.186;6.598;2023-07-20T09:56:01;20.60;79.00
52979;DHT22;63430;53.186;6.598;2023-07-20T09:58:08;21.00;76.00
52979;DHT22;63430;53.186;6.598;2023-07-20T10:00:17;21.20;72.60
52979;DHT22;63430;53.186;6.598;2023-07-20T10:02:26;21.30;67.50
52979;DHT22;63430;53.186;6.598;2023-07-20T10:04:36;21.40;65.20
52979;DHT22;63430;53.186;6.598;2023-07-20T10:06:47;21.30;63.90
52979;DHT22;63430;53.186;6.598;2023-07-20T10:08:53;21.10;68.10
52979;DHT22;63430;53.186;6.598;2023-07-20T10:11:02;20.90;70.60
52979;DHT22;63430;53.186;6.598;2023-07-20T10:13:12;20.80;72.50
52979;DHT22;63430;53.186;6.598;2023-07-20T10:15:19;20.80;71.90
52979;DHT22;63430;53.186;6.598;2023-07-20T10:17:26;21.10;71.90
52979;DHT22;63430;53.186;6.598;2023-07-20T10:19:43;21.40;71.10
52979;DHT22;63430;53.186;6.598;2023-07-20T10:21:59;21.40;69.20
52979;DHT22;63430;53.186;6.598;2023-07-20T10:24:10;21.20;69.50
52979;DHT22;63430;53.186;6.598;2023-07-20T10:26:15;21.10;65.00
52979;DHT22;63430;53.186;6.598;2023-07-20T10:28:21;21.00;67.90
52979;DHT22;63430;53.186;6.598;2023-07-20T10:30:28;21.20;68.60
52979;DHT22;63430;53.186;6.598;2023-07-20T10:32:34;21.40;68.90
52979;DHT22;63430;53.186;6.598;2023-07-20T10:34:42;21.50;67.40
52979;DHT22;63430;53.186;6.598;2023-07-20T10:36:48;21.60;65.20
52979;DHT22;63430;53.186;6.598;2023-07-20T10:38:59;21.90;65.50
52979;DHT22;63430;53.186;6.598;2023-07-20T10:41:04;22.00;67.30
52979;DHT22;63430;53.186;6.598;2023-07-20T10:43:08;21.90;65.80
52979;DHT22;63430;53.186;6.598;2023-07-20T10:45:16;21.80;60.80
52979;DHT22;63430;53.186;6.598;2023-07-20T10:47:22;21.60;61.10
52979;DHT22;63430;53.186;6.598;2023-07-20T10:49:25;21.60;60.90
52979;DHT22;63430;53.186;6.598;2023-07-20T10:51:30;21.70;61.70
52979;DHT22;63430;53.186;6.598;2023-07-20T10:53:33;21.70;60.80
52979;DHT22;63430;53.186;6.598;2023-07-20T10:55:43;21.80;58.90
52979;DHT22;63430;53.186;6.598;2023-07-20T10:58:06;21.90;58.20
52979;DHT22;63430;53.186;6.598;2023-07-20T11:00:11;21.80;58.60
52979;DHT22;63430;53.186;6.598;2023-07-20T11:02:18;21.60;57.90
52979;DHT22;63430;53.186;6.598;2023-07-20T11:04:38;21.20;58.00
52979;DHT22;63430;53.186;6.598;2023-07-20T11:06:43;21.00;59.80
52979;DHT22;63430;53.186;6.598;2023-07-20T11:08:46;20.70;60.20
52979;DHT22;63430;53.186;6.598;2023-07-20T11:11:28;20.50;60.80
52979;DHT22;63430;53.186;6.598;2023-07-20T11:13:32;20.30;62.70
52979;DHT22;63430;53.186;6.598;2023-07-20T11:15:46;20.60;66.10
52979;DHT22;63430;53.186;6.598;2023-07-20T11:17:50;21.00;68.10
52979;DHT22;63430;53.186;6.598;2023-07-20T11:19:55;21.20;66.20
52979;DHT22;63430;53.186;6.598;2023-07-20T11:22:05;21.30;63.70
52979;DHT22;63430;53.186;6.598;2023-07-20T11:24:12;21.30;61.40
52979;DHT22;63430;53.186;6.598;2023-07-20T11:26:20;21.10;62.40
52979;DHT22;63430;53.186;6.598;2023-07-20T11:28:30;21.00;60.80
52979;DHT22;63430;53.186;6.598;2023-07-20T11:30:33;21.10;60.00
52979;DHT22;63430;53.186;6.598;2023-07-20T11:32:49;21.10;60.20
52979;DHT22;63430;53.186;6.598;2023-07-20T11:34:58;21.20;60.80
52979;DHT22;63430;53.186;6.598;2023-07-20T11:37:02;21.20;61.60
52979;DHT22;63430;53.186;6.598;2023-07-20T11:39:13;21.10;63.20
52979;DHT22;63430;53.186;6.598;2023-07-20T11:41:16;20.90;63.40
52979;DHT22;63430;53.186;6.598;2023-07-20T11:43:23;20.80;63.10
52979;DHT22;63430;53.186;6.598;2023-07-20T11:45:37;20.70;63.90
52979;DHT22;63430;53.186;6.598;2023-07-20T11:47:40;20.60;64.30
52979;DHT22;63430;53.186;6.598;2023-07-20T11:49:44;20.70;64.10
52979;DHT22;63430;53.186;6.598;2023-07-20T11:51:52;21.10;63.90
52979;DHT22;63430;53.186;6.598;2023-07-20T11:53:56;21.40;63.30
52979;DHT22;63430;53.186;6.598;2023-07-20T11:56:02;21.70;63.00
52979;DHT22;63430;53.186;6.598;2023-07-20T11:58:09;21.90;61.10
52979;DHT22;63430;53.186;6.598;2023-07-20T12:00:18;21.90;58.10
52979;DHT22;63430;53.186;6.598;2023-07-20T12:02:23;21.70;55.80
52979;DHT22;63430;53.186;6.598;2023-07-20T12:04:32;21.50;55.50
52979;DHT22;63430;53.186;6.598;2023-07-20T12:06:36;21.20;57.30
52979;DHT22;63430;53.186;6.598;2023-07-20T12:08:40;21.20;59.40
52979;DHT22;63430;53.186;6.598;2023-07-20T12:10:45;21.20;58.30
52979;DHT22;63430;53.186;6.598;2023-07-20T12:12:52;21.00;58.90
52979;DHT22;63430;53.186;6.598;2023-07-20T12:14:55;20.90;58.40
52979;DHT22;63430;53.186;6.598;2023-07-20T12:16:58;20.80;59.10
52979;DHT22;63430;53.186;6.598;2023-07-20T12:19:05;20.60;60.00
52979;DHT22;63430;53.186;6.598;2023-07-20T12:21:09;20.50;61.10
52979;DHT22;63430;53.186;6.598;2023-07-20T12:23:12;20.50;61.60
52979;DHT22;63430;53.186;6.598;2023-07-20T12:25:17;20.40;60.80
52979;DHT22;63430;53.186;6.598;2023-07-20T12:27:27;20.30;62.20
52979;DHT22;63430;53.186;6.598;2023-07-20T12:29:30;20.20;62.50
52979;DHT22;63430;53.186;6.598;2023-07-20T12:31:41;20.30;63.20
52979;DHT22;63430;53.186;6.598;2023-07-20T12:33:47;20.20;62.80
52979;DHT22;63430;53.186;6.598;2023-07-20T12:35:58;20.30;64.80
52979;DHT22;63430;53.186;6.598;2023-07-20T12:38:04;20.70;65.70
52979;DHT22;63430;53.186;6.598;2023-07-20T12:40:14;21.00;63.70
52979;DHT22;63430;53.186;6.598;2023-07-20T12:42:20;21.20;61.70
52979;DHT22;63430;53.186;6.598;2023-07-20T12:44:23;21.30;59.80
52979;DHT22;63430;53.186;6.598;2023-07-20T12:46:28;21.30;59.70
52979;DHT22;63430;53.186;6.598;2023-07-20T12:48:32;21.10;57.70
52979;DHT22;63430;53.186;6.598;2023-07-20T12:50:38;20.90;58.70
52979;DHT22;63430;53.186;6.598;2023-07-20T12:52:48;20.60;58.60
52979;DHT22;63430;53.186;6.598;2023-07-20T12:54:51;20.30;62.60
52979;DHT22;63430;53.186;6.598;2023-07-20T12:56:56;19.80;69.80
52979;DHT22;63430;53.186;6.598;2023-07-20T12:59:03;19.30;77.90
52979;DHT22;63430;53.186;6.598;2023-07-20T13:01:12;18.90;87.20
52979;DHT22;63430;53.186;6.598;2023-07-20T13:03:20;18.60;92.10
52979;DHT22;63430;53.186;6.598;2023-07-20T13:05:26;18.40;94.00
52979;DHT22;63430;53.186;6.598;2023-07-20T13:07:33;18.20;96.10
52979;DHT22;63430;53.186;6.598;2023-07-20T13:09:45;18.00;97.70
52979;DHT22;63430;53.186;6.598;2023-07-20T13:11:52;18.00;99.90
52979;DHT22;63430;53.186;6.598;2023-07-20T13:14:01;18.20;99.90
52979;DHT22;63430;53.186;6.598;2023-07-20T13:16:04;18.70;99.90
52979;DHT22;63430;53.186;6.598;2023-07-20T13:18:13;19.10;99.90